Pembury, United Kingdom
Current Conditions -  °F | °C
As of 12:50 PM on Thursday 30 Oct 2014 (Local Time) from EGKB Reporting Station
Scattered Clouds Scattered Clouds  
Wind Chill: 63°   Ceiling: Unl
Heat Index: 63°   Visibility: 4mi
Dew Point: 55°   Wind: 9mph
Humidity: 77%   Direction: 200°SSW
Pressure: 30.09"   Gusts: NA
Location:  51.14°N, 0.32°E
Report Text: EGKB 301250Z 20008KT 170V230 6000 SCT010 17/13 Q1019
Loading
Personal Weather Stations






























Interactive Weather Map
Tropical Storm Tracking
New forecast layout! Learn more

10-Day Weather Forecast

Advertisements
Track Severe Weather on mobile